Terminal Aerodrome Forecast
Issued by NWS Missoula, MT

Home | Current Version | Previous Version | Text Only | Print | Product List | Glossary On
Versions: 1 2 3 4 5 6 7 8 9 10 11 12 13 14 15 16 17 18 19 20 21
000
FTUS45 KMSO 210520
TAFGPI
TAF
KGPI 210520Z 2106/2206 00000KT P6SM BKN045 OVC060
     FM210700 00000KT 3SM -RASN BR BKN015 OVC030
     FM211300 18007KT P6SM -SHRA OVC040
     FM212000 18010KT P6SM VCSH BKN040=

USA.gov is the U.S. government's official web portal to all federal, state and local government web resources and services.